sensor_id;sensor_type;location;lat;lon;timestamp;P1;durP1;ratioP1;P2;durP2;ratioP2
22628;SDS011;11481;53.694;9.910;2023-09-18T00:01:13;6.05;;;4.40;;
22628;SDS011;11481;53.694;9.910;2023-09-18T00:03:40;8.20;;;4.82;;
22628;SDS011;11481;53.694;9.910;2023-09-18T00:06:07;5.30;;;3.97;;
22628;SDS011;11481;53.694;9.910;2023-09-18T00:08:34;7.22;;;4.50;;
22628;SDS011;11481;53.694;9.910;2023-09-18T00:11:01;6.65;;;4.25;;
22628;SDS011;11481;53.694;9.910;2023-09-18T00:13:28;6.45;;;4.40;;
22628;SDS011;11481;53.694;9.910;2023-09-18T00:15:55;6.18;;;4.43;;
22628;SDS011;11481;53.694;9.910;2023-09-18T00:18:22;13.00;;;5.00;;
22628;SDS011;11481;53.694;9.910;2023-09-18T00:20:49;5.88;;;4.22;;
22628;SDS011;11481;53.694;9.910;2023-09-18T00:23:18;5.85;;;4.68;;
22628;SDS011;11481;53.694;9.910;2023-09-18T00:25:44;6.88;;;4.53;;
22628;SDS011;11481;53.694;9.910;2023-09-18T00:28:11;5.90;;;4.13;;
22628;SDS011;11481;53.694;9.910;2023-09-18T00:30:39;7.10;;;4.80;;
22628;SDS011;11481;53.694;9.910;2023-09-18T00:33:12;7.13;;;4.50;;
22628;SDS011;11481;53.694;9.910;2023-09-18T00:35:39;6.65;;;4.55;;
22628;SDS011;11481;53.694;9.910;2023-09-18T00:38:05;6.38;;;4.32;;
22628;SDS011;11481;53.694;9.910;2023-09-18T00:40:33;6.80;;;5.18;;
22628;SDS011;11481;53.694;9.910;2023-09-18T00:43:00;7.45;;;4.78;;
22628;SDS011;11481;53.694;9.910;2023-09-18T00:45:27;5.80;;;4.43;;
22628;SDS011;11481;53.694;9.910;2023-09-18T00:47:53;8.52;;;5.07;;
22628;SDS011;11481;53.694;9.910;2023-09-18T00:50:21;6.72;;;4.45;;
22628;SDS011;11481;53.694;9.910;2023-09-18T00:52:48;6.15;;;4.50;;
22628;SDS011;11481;53.694;9.910;2023-09-18T00:55:15;7.25;;;4.97;;
22628;SDS011;11481;53.694;9.910;2023-09-18T00:57:43;7.40;;;5.10;;
22628;SDS011;11481;53.694;9.910;2023-09-18T01:00:11;7.15;;;4.72;;
22628;SDS011;11481;53.694;9.910;2023-09-18T01:02:43;7.03;;;4.63;;
22628;SDS011;11481;53.694;9.910;2023-09-18T01:05:11;7.30;;;4.78;;
22628;SDS011;11481;53.694;9.910;2023-09-18T01:07:38;6.75;;;4.57;;
22628;SDS011;11481;53.694;9.910;2023-09-18T01:10:05;7.18;;;4.35;;
22628;SDS011;11481;53.694;9.910;2023-09-18T01:15:21;6.07;;;4.55;;
22628;SDS011;11481;53.694;9.910;2023-09-18T01:17:52;8.05;;;4.63;;
22628;SDS011;11481;53.694;9.910;2023-09-18T01:20:19;7.03;;;4.57;;
22628;SDS011;11481;53.694;9.910;2023-09-18T01:22:46;6.70;;;4.78;;
22628;SDS011;11481;53.694;9.910;2023-09-18T01:25:15;6.35;;;4.53;;
22628;SDS011;11481;53.694;9.910;2023-09-18T01:27:42;5.90;;;4.38;;
22628;SDS011;11481;53.694;9.910;2023-09-18T01:30:09;6.28;;;4.55;;
22628;SDS011;11481;53.694;9.910;2023-09-18T01:32:36;7.50;;;4.60;;
22628;SDS011;11481;53.694;9.910;2023-09-18T01:35:05;6.55;;;4.32;;
22628;SDS011;11481;53.694;9.910;2023-09-18T01:37:33;6.97;;;4.60;;
22628;SDS011;11481;53.694;9.910;2023-09-18T01:40:02;6.75;;;4.65;;
22628;SDS011;11481;53.694;9.910;2023-09-18T01:42:32;6.13;;;4.28;;
22628;SDS011;11481;53.694;9.910;2023-09-18T01:45:01;6.22;;;4.35;;
22628;SDS011;11481;53.694;9.910;2023-09-18T01:47:28;6.55;;;4.93;;
22628;SDS011;11481;53.694;9.910;2023-09-18T01:49:55;6.30;;;4.63;;
22628;SDS011;11481;53.694;9.910;2023-09-18T01:52:22;5.85;;;4.47;;
22628;SDS011;11481;53.694;9.910;2023-09-18T01:54:49;6.05;;;4.50;;
22628;SDS011;11481;53.694;9.910;2023-09-18T01:57:16;6.90;;;5.18;;
22628;SDS011;11481;53.694;9.910;2023-09-18T01:59:42;7.32;;;4.90;;
22628;SDS011;11481;53.694;9.910;2023-09-18T02:02:11;5.72;;;4.47;;
22628;SDS011;11481;53.694;9.910;2023-09-18T02:04:52;6.13;;;4.57;;
22628;SDS011;11481;53.694;9.910;2023-09-18T02:07:35;6.72;;;4.65;;
22628;SDS011;11481;53.694;9.910;2023-09-18T02:10:02;8.70;;;5.03;;
22628;SDS011;11481;53.694;9.910;2023-09-18T02:12:29;7.20;;;4.47;;
22628;SDS011;11481;53.694;9.910;2023-09-18T02:14:56;8.55;;;5.05;;
22628;SDS011;11481;53.694;9.910;2023-09-18T02:17:24;7.30;;;5.05;;
22628;SDS011;11481;53.694;9.910;2023-09-18T02:19:51;6.82;;;5.03;;
22628;SDS011;11481;53.694;9.910;2023-09-18T02:22:18;7.85;;;5.45;;
22628;SDS011;11481;53.694;9.910;2023-09-18T02:24:44;8.32;;;5.20;;
22628;SDS011;11481;53.694;9.910;2023-09-18T02:27:11;9.23;;;5.07;;
22628;SDS011;11481;53.694;9.910;2023-09-18T02:29:38;6.80;;;4.60;;
22628;SDS011;11481;53.694;9.910;2023-09-18T02:32:05;6.45;;;4.75;;
22628;SDS011;11481;53.694;9.910;2023-09-18T02:34:31;6.35;;;4.80;;
22628;SDS011;11481;53.694;9.910;2023-09-18T02:36:59;6.80;;;5.18;;
22628;SDS011;11481;53.694;9.910;2023-09-18T02:39:26;5.97;;;4.80;;
22628;SDS011;11481;53.694;9.910;2023-09-18T02:41:52;6.18;;;4.32;;
22628;SDS011;11481;53.694;9.910;2023-09-18T02:44:19;6.97;;;4.65;;
22628;SDS011;11481;53.694;9.910;2023-09-18T02:46:46;6.80;;;4.65;;
22628;SDS011;11481;53.694;9.910;2023-09-18T02:49:13;6.15;;;4.80;;
22628;SDS011;11481;53.694;9.910;2023-09-18T02:51:39;5.88;;;4.68;;
22628;SDS011;11481;53.694;9.910;2023-09-18T02:54:06;7.95;;;5.03;;
22628;SDS011;11481;53.694;9.910;2023-09-18T02:56:32;6.70;;;4.57;;
22628;SDS011;11481;53.694;9.910;2023-09-18T02:58:59;6.95;;;4.80;;
22628;SDS011;11481;53.694;9.910;2023-09-18T03:01:26;6.93;;;4.82;;
22628;SDS011;11481;53.694;9.910;2023-09-18T03:03:52;7.43;;;4.85;;
22628;SDS011;11481;53.694;9.910;2023-09-18T03:06:19;7.43;;;5.30;;
22628;SDS011;11481;53.694;9.910;2023-09-18T03:08:46;7.57;;;5.35;;
22628;SDS011;11481;53.694;9.910;2023-09-18T03:11:13;7.00;;;4.75;;
22628;SDS011;11481;53.694;9.910;2023-09-18T03:13:44;6.93;;;4.85;;
22628;SDS011;11481;53.694;9.910;2023-09-18T03:16:14;6.63;;;5.15;;
22628;SDS011;11481;53.694;9.910;2023-09-18T03:18:41;11.75;;;4.97;;
22628;SDS011;11481;53.694;9.910;2023-09-18T03:21:08;6.82;;;5.20;;
22628;SDS011;11481;53.694;9.910;2023-09-18T03:23:34;8.00;;;5.28;;
22628;SDS011;11481;53.694;9.910;2023-09-18T03:26:01;8.40;;;5.40;;
22628;SDS011;11481;53.694;9.910;2023-09-18T03:28:28;7.13;;;5.38;;
22628;SDS011;11481;53.694;9.910;2023-09-18T03:30:57;10.00;;;5.72;;
22628;SDS011;11481;53.694;9.910;2023-09-18T03:33:24;6.97;;;5.13;;
22628;SDS011;11481;53.694;9.910;2023-09-18T03:35:52;8.25;;;5.93;;
22628;SDS011;11481;53.694;9.910;2023-09-18T03:38:21;7.68;;;5.57;;
22628;SDS011;11481;53.694;9.910;2023-09-18T03:40:48;8.57;;;5.70;;
22628;SDS011;11481;53.694;9.910;2023-09-18T03:43:14;6.45;;;4.72;;
22628;SDS011;11481;53.694;9.910;2023-09-18T03:45:41;7.55;;;5.40;;
22628;SDS011;11481;53.694;9.910;2023-09-18T03:48:09;8.73;;;4.78;;
22628;SDS011;11481;53.694;9.910;2023-09-18T03:50:36;7.93;;;5.28;;
22628;SDS011;11481;53.694;9.910;2023-09-18T03:53:04;8.52;;;5.63;;
22628;SDS011;11481;53.694;9.910;2023-09-18T03:55:30;7.05;;;5.00;;
22628;SDS011;11481;53.694;9.910;2023-09-18T03:57:57;8.23;;;5.40;;
22628;SDS011;11481;53.694;9.910;2023-09-18T04:00:24;7.25;;;5.40;;
22628;SDS011;11481;53.694;9.910;2023-09-18T04:02:52;8.02;;;4.80;;
22628;SDS011;11481;53.694;9.910;2023-09-18T04:05:19;6.80;;;5.00;;
22628;SDS011;11481;53.694;9.910;2023-09-18T04:07:45;8.73;;;5.45;;
22628;SDS011;11481;53.694;9.910;2023-09-18T04:10:13;7.13;;;5.15;;
22628;SDS011;11481;53.694;9.910;2023-09-18T04:12:50;7.20;;;5.32;;
22628;SDS011;11481;53.694;9.910;2023-09-18T04:15:17;9.10;;;5.20;;
22628;SDS011;11481;53.694;9.910;2023-09-18T04:17:45;7.90;;;5.53;;
22628;SDS011;11481;53.694;9.910;2023-09-18T04:20:12;7.60;;;5.22;;
22628;SDS011;11481;53.694;9.910;2023-09-18T04:22:41;7.05;;;5.22;;
22628;SDS011;11481;53.694;9.910;2023-09-18T04:25:09;10.70;;;5.95;;
22628;SDS011;11481;53.694;9.910;2023-09-18T04:27:37;7.90;;;5.43;;
22628;SDS011;11481;53.694;9.910;2023-09-18T04:30:03;7.70;;;5.50;;
22628;SDS011;11481;53.694;9.910;2023-09-18T04:32:31;7.97;;;5.07;;
22628;SDS011;11481;53.694;9.910;2023-09-18T04:34:58;7.75;;;5.72;;
22628;SDS011;11481;53.694;9.910;2023-09-18T04:37:24;9.05;;;5.82;;
22628;SDS011;11481;53.694;9.910;2023-09-18T04:39:51;7.80;;;5.47;;
22628;SDS011;11481;53.694;9.910;2023-09-18T04:42:18;10.18;;;5.60;;
22628;SDS011;11481;53.694;9.910;2023-09-18T04:44:45;7.18;;;5.45;;
22628;SDS011;11481;53.694;9.910;2023-09-18T04:47:12;8.93;;;5.80;;
22628;SDS011;11481;53.694;9.910;2023-09-18T04:49:38;6.32;;;5.20;;
22628;SDS011;11481;53.694;9.910;2023-09-18T04:52:05;8.32;;;5.85;;
22628;SDS011;11481;53.694;9.910;2023-09-18T04:54:32;8.50;;;5.82;;
22628;SDS011;11481;53.694;9.910;2023-09-18T04:56:59;11.63;;;6.22;;
22628;SDS011;11481;53.694;9.910;2023-09-18T04:59:25;7.25;;;5.30;;
22628;SDS011;11481;53.694;9.910;2023-09-18T05:01:52;7.35;;;5.55;;
22628;SDS011;11481;53.694;9.910;2023-09-18T05:04:19;9.65;;;5.50;;
22628;SDS011;11481;53.694;9.910;2023-09-18T05:06:45;8.32;;;5.55;;
22628;SDS011;11481;53.694;9.910;2023-09-18T05:09:12;8.55;;;6.20;;
22628;SDS011;11481;53.694;9.910;2023-09-18T05:11:40;7.70;;;5.45;;
22628;SDS011;11481;53.694;9.910;2023-09-18T05:14:08;9.60;;;5.43;;
22628;SDS011;11481;53.694;9.910;2023-09-18T05:16:35;7.53;;;4.93;;
22628;SDS011;11481;53.694;9.910;2023-09-18T05:19:02;8.05;;;5.60;;
22628;SDS011;11481;53.694;9.910;2023-09-18T05:21:28;10.10;;;5.97;;
22628;SDS011;11481;53.694;9.910;2023-09-18T05:23:56;8.77;;;5.30;;
22628;SDS011;11481;53.694;9.910;2023-09-18T05:26:22;7.47;;;5.65;;
22628;SDS011;11481;53.694;9.910;2023-09-18T05:28:51;7.88;;;5.82;;
22628;SDS011;11481;53.694;9.910;2023-09-18T05:31:18;7.20;;;5.57;;
22628;SDS011;11481;53.694;9.910;2023-09-18T05:33:45;8.77;;;5.63;;
22628;SDS011;11481;53.694;9.910;2023-09-18T05:36:12;8.18;;;5.85;;
22628;SDS011;11481;53.694;9.910;2023-09-18T05:38:40;8.60;;;5.45;;
22628;SDS011;11481;53.694;9.910;2023-09-18T05:41:09;7.70;;;5.65;;
22628;SDS011;11481;53.694;9.910;2023-09-18T05:43:36;7.32;;;5.55;;
22628;SDS011;11481;53.694;9.910;2023-09-18T05:46:03;11.70;;;6.10;;
22628;SDS011;11481;53.694;9.910;2023-09-18T05:48:31;7.50;;;5.60;;
22628;SDS011;11481;53.694;9.910;2023-09-18T05:50:57;7.65;;;5.63;;
22628;SDS011;11481;53.694;9.910;2023-09-18T05:53:25;7.68;;;5.72;;
22628;SDS011;11481;53.694;9.910;2023-09-18T05:55:52;9.23;;;5.78;;
22628;SDS011;11481;53.694;9.910;2023-09-18T05:58:20;9.13;;;5.88;;
22628;SDS011;11481;53.694;9.910;2023-09-18T06:00:50;8.25;;;5.72;;
22628;SDS011;11481;53.694;9.910;2023-09-18T06:03:18;8.32;;;5.93;;
22628;SDS011;11481;53.694;9.910;2023-09-18T06:05:46;8.25;;;5.85;;
22628;SDS011;11481;53.694;9.910;2023-09-18T06:08:13;11.02;;;6.18;;
22628;SDS011;11481;53.694;9.910;2023-09-18T06:10:42;7.65;;;5.90;;
22628;SDS011;11481;53.694;9.910;2023-09-18T06:13:09;9.38;;;5.85;;
22628;SDS011;11481;53.694;9.910;2023-09-18T06:15:36;9.10;;;6.03;;
22628;SDS011;11481;53.694;9.910;2023-09-18T06:18:02;8.35;;;5.78;;
22628;SDS011;11481;53.694;9.910;2023-09-18T06:20:33;8.57;;;6.22;;
22628;SDS011;11481;53.694;9.910;2023-09-18T06:23:00;9.02;;;5.45;;
22628;SDS011;11481;53.694;9.910;2023-09-18T06:25:27;9.77;;;6.03;;
22628;SDS011;11481;53.694;9.910;2023-09-18T06:27:54;11.57;;;5.63;;
22628;SDS011;11481;53.694;9.910;2023-09-18T06:30:20;12.57;;;6.10;;
22628;SDS011;11481;53.694;9.910;2023-09-18T06:32:47;7.57;;;5.75;;
22628;SDS011;11481;53.694;9.910;2023-09-18T06:35:14;8.48;;;5.97;;
22628;SDS011;11481;53.694;9.910;2023-09-18T06:37:41;7.68;;;5.40;;
22628;SDS011;11481;53.694;9.910;2023-09-18T06:40:08;9.40;;;6.20;;
22628;SDS011;11481;53.694;9.910;2023-09-18T06:42:35;7.90;;;5.63;;
22628;SDS011;11481;53.694;9.910;2023-09-18T06:45:02;8.73;;;5.60;;
22628;SDS011;11481;53.694;9.910;2023-09-18T06:47:29;10.85;;;5.82;;
22628;SDS011;11481;53.694;9.910;2023-09-18T06:49:56;10.80;;;6.47;;
22628;SDS011;11481;53.694;9.910;2023-09-18T06:52:23;8.63;;;5.85;;
22628;SDS011;11481;53.694;9.910;2023-09-18T06:54:51;8.85;;;5.90;;
22628;SDS011;11481;53.694;9.910;2023-09-18T06:57:18;8.55;;;6.35;;
22628;SDS011;11481;53.694;9.910;2023-09-18T06:59:47;8.15;;;5.55;;
22628;SDS011;11481;53.694;9.910;2023-09-18T07:02:14;11.68;;;5.55;;
22628;SDS011;11481;53.694;9.910;2023-09-18T07:04:41;8.10;;;5.75;;
22628;SDS011;11481;53.694;9.910;2023-09-18T07:07:12;9.13;;;5.85;;
22628;SDS011;11481;53.694;9.910;2023-09-18T07:09:40;12.32;;;6.20;;
22628;SDS011;11481;53.694;9.910;2023-09-18T07:12:28;8.77;;;5.88;;
22628;SDS011;11481;53.694;9.910;2023-09-18T07:14:55;10.32;;;6.00;;
22628;SDS011;11481;53.694;9.910;2023-09-18T07:17:21;7.00;;;5.30;;
22628;SDS011;11481;53.694;9.910;2023-09-18T07:19:48;7.25;;;5.43;;
22628;SDS011;11481;53.694;9.910;2023-09-18T07:22:15;7.57;;;5.30;;
22628;SDS011;11481;53.694;9.910;2023-09-18T07:24:42;7.57;;;5.38;;
22628;SDS011;11481;53.694;9.910;2023-09-18T07:27:11;7.88;;;5.50;;
22628;SDS011;11481;53.694;9.910;2023-09-18T07:29:39;8.02;;;5.45;;
22628;SDS011;11481;53.694;9.910;2023-09-18T07:32:06;8.25;;;5.22;;
22628;SDS011;11481;53.694;9.910;2023-09-18T07:34:32;7.15;;;5.28;;
22628;SDS011;11481;53.694;9.910;2023-09-18T07:36:59;7.38;;;5.15;;
22628;SDS011;11481;53.694;9.910;2023-09-18T07:39:26;7.80;;;5.07;;
22628;SDS011;11481;53.694;9.910;2023-09-18T07:41:56;8.45;;;5.90;;
22628;SDS011;11481;53.694;9.910;2023-09-18T07:44:22;9.57;;;5.22;;
22628;SDS011;11481;53.694;9.910;2023-09-18T07:46:49;7.68;;;5.25;;
22628;SDS011;11481;53.694;9.910;2023-09-18T07:49:16;8.27;;;5.45;;
22628;SDS011;11481;53.694;9.910;2023-09-18T07:51:43;6.63;;;5.30;;
22628;SDS011;11481;53.694;9.910;2023-09-18T07:54:13;8.70;;;6.03;;
22628;SDS011;11481;53.694;9.910;2023-09-18T07:56:41;8.48;;;5.95;;
22628;SDS011;11481;53.694;9.910;2023-09-18T07:59:09;9.00;;;5.90;;
22628;SDS011;11481;53.694;9.910;2023-09-18T08:01:36;7.75;;;5.47;;
22628;SDS011;11481;53.694;9.910;2023-09-18T08:04:04;12.57;;;5.45;;
22628;SDS011;11481;53.694;9.910;2023-09-18T08:06:32;7.97;;;5.40;;
22628;SDS011;11481;53.694;9.910;2023-09-18T08:09:00;7.63;;;5.55;;
22628;SDS011;11481;53.694;9.910;2023-09-18T08:11:26;8.38;;;5.43;;
22628;SDS011;11481;53.694;9.910;2023-09-18T08:13:53;8.68;;;5.47;;
22628;SDS011;11481;53.694;9.910;2023-09-18T08:16:20;8.15;;;5.65;;
22628;SDS011;11481;53.694;9.910;2023-09-18T08:18:47;10.00;;;5.60;;
22628;SDS011;11481;53.694;9.910;2023-09-18T08:21:14;9.00;;;5.43;;
22628;SDS011;11481;53.694;9.910;2023-09-18T08:23:41;9.65;;;5.60;;
22628;SDS011;11481;53.694;9.910;2023-09-18T08:26:08;7.93;;;5.22;;
22628;SDS011;11481;53.694;9.910;2023-09-18T08:28:35;6.35;;;4.72;;
22628;SDS011;11481;53.694;9.910;2023-09-18T08:31:05;7.28;;;5.10;;
22628;SDS011;11481;53.694;9.910;2023-09-18T08:33:31;8.13;;;5.05;;
22628;SDS011;11481;53.694;9.910;2023-09-18T08:35:58;6.32;;;4.75;;
22628;SDS011;11481;53.694;9.910;2023-09-18T08:38:26;6.85;;;5.13;;
22628;SDS011;11481;53.694;9.910;2023-09-18T08:40:54;7.28;;;4.82;;
22628;SDS011;11481;53.694;9.910;2023-09-18T08:43:21;7.75;;;5.07;;
22628;SDS011;11481;53.694;9.910;2023-09-18T08:45:51;7.72;;;5.05;;
22628;SDS011;11481;53.694;9.910;2023-09-18T08:48:20;5.88;;;4.65;;
22628;SDS011;11481;53.694;9.910;2023-09-18T08:50:48;7.55;;;5.22;;
22628;SDS011;11481;53.694;9.910;2023-09-18T08:53:16;7.28;;;5.05;;
22628;SDS011;11481;53.694;9.910;2023-09-18T08:55:43;7.15;;;5.07;;
22628;SDS011;11481;53.694;9.910;2023-09-18T08:58:09;8.82;;;5.32;;
22628;SDS011;11481;53.694;9.910;2023-09-18T09:00:37;8.10;;;5.25;;
22628;SDS011;11481;53.694;9.910;2023-09-18T09:03:04;7.15;;;5.15;;
22628;SDS011;11481;53.694;9.910;2023-09-18T09:05:31;8.07;;;4.45;;
22628;SDS011;11481;53.694;9.910;2023-09-18T09:07:59;6.95;;;4.90;;
22628;SDS011;11481;53.694;9.910;2023-09-18T09:10:26;7.40;;;4.97;;
22628;SDS011;11481;53.694;9.910;2023-09-18T09:15:21;6.57;;;4.70;;
22628;SDS011;11481;53.694;9.910;2023-09-18T09:17:51;7.32;;;4.95;;
22628;SDS011;11481;53.694;9.910;2023-09-18T09:20:19;9.98;;;5.25;;
22628;SDS011;11481;53.694;9.910;2023-09-18T09:22:46;6.30;;;4.18;;
22628;SDS011;11481;53.694;9.910;2023-09-18T09:25:21;9.57;;;5.57;;
22628;SDS011;11481;53.694;9.910;2023-09-18T09:27:57;8.38;;;5.40;;
22628;SDS011;11481;53.694;9.910;2023-09-18T09:30:26;8.73;;;5.25;;
22628;SDS011;11481;53.694;9.910;2023-09-18T09:32:55;6.70;;;5.05;;
22628;SDS011;11481;53.694;9.910;2023-09-18T09:35:26;7.22;;;4.95;;
22628;SDS011;11481;53.694;9.910;2023-09-18T09:37:59;10.00;;;5.68;;
22628;SDS011;11481;53.694;9.910;2023-09-18T09:40:28;9.00;;;5.25;;
22628;SDS011;11481;53.694;9.910;2023-09-18T09:42:57;8.43;;;5.40;;
22628;SDS011;11481;53.694;9.910;2023-09-18T09:45:28;6.43;;;4.75;;
22628;SDS011;11481;53.694;9.910;2023-09-18T09:47:56;8.93;;;5.28;;
22628;SDS011;11481;53.694;9.910;2023-09-18T09:50:24;6.63;;;4.70;;
22628;SDS011;11481;53.694;9.910;2023-09-18T09:52:53;8.32;;;5.10;;
22628;SDS011;11481;53.694;9.910;2023-09-18T09:55:30;6.63;;;4.60;;
22628;SDS011;11481;53.694;9.910;2023-09-18T09:58:01;5.57;;;4.32;;
22628;SDS011;11481;53.694;9.910;2023-09-18T10:00:31;14.60;;;5.05;;
22628;SDS011;11481;53.694;9.910;2023-09-18T10:03:10;7.80;;;4.55;;
22628;SDS011;11481;53.694;9.910;2023-09-18T10:05:39;5.68;;;4.30;;
22628;SDS011;11481;53.694;9.910;2023-09-18T10:08:17;8.25;;;4.60;;
22628;SDS011;11481;53.694;9.910;2023-09-18T10:11:00;7.13;;;4.50;;
22628;SDS011;11481;53.694;9.910;2023-09-18T10:13:32;7.68;;;4.53;;
22628;SDS011;11481;53.694;9.910;2023-09-18T10:16:06;6.15;;;4.63;;
22628;SDS011;11481;53.694;9.910;2023-09-18T10:21:24;9.65;;;4.30;;
22628;SDS011;11481;53.694;9.910;2023-09-18T10:23:59;7.18;;;4.45;;
22628;SDS011;11481;53.694;9.910;2023-09-18T10:26:44;8.27;;;5.00;;
22628;SDS011;11481;53.694;9.910;2023-09-18T10:29:21;6.82;;;4.32;;
22628;SDS011;11481;53.694;9.910;2023-09-18T10:31:52;11.27;;;4.45;;
22628;SDS011;11481;53.694;9.910;2023-09-18T10:34:20;8.00;;;4.28;;
22628;SDS011;11481;53.694;9.910;2023-09-18T10:36:48;6.53;;;4.05;;
22628;SDS011;11481;53.694;9.910;2023-09-18T10:39:21;7.43;;;3.72;;
22628;SDS011;11481;53.694;9.910;2023-09-18T10:41:51;8.57;;;3.78;;
22628;SDS011;11481;53.694;9.910;2023-09-18T10:44:19;5.22;;;3.30;;
22628;SDS011;11481;53.694;9.910;2023-09-18T10:46:50;5.50;;;3.50;;
22628;SDS011;11481;53.694;9.910;2023-09-18T10:49:18;6.13;;;3.40;;
22628;SDS011;11481;53.694;9.910;2023-09-18T10:51:46;6.35;;;3.40;;
22628;SDS011;11481;53.694;9.910;2023-09-18T10:54:17;6.25;;;3.65;;
22628;SDS011;11481;53.694;9.910;2023-09-18T10:56:47;8.57;;;3.67;;
22628;SDS011;11481;53.694;9.910;2023-09-18T10:59:14;6.65;;;4.15;;
22628;SDS011;11481;53.694;9.910;2023-09-18T11:01:42;8.52;;;3.70;;
22628;SDS011;11481;53.694;9.910;2023-09-18T11:04:10;8.05;;;3.60;;
22628;SDS011;11481;53.694;9.910;2023-09-18T11:09:20;5.47;;;3.45;;
22628;SDS011;11481;53.694;9.910;2023-09-18T11:14:45;7.57;;;3.53;;
22628;SDS011;11481;53.694;9.910;2023-09-18T11:23:38;5.68;;;3.10;;
22628;SDS011;11481;53.694;9.910;2023-09-18T11:25:39;6.40;;;3.50;;
22628;SDS011;11481;53.694;9.910;2023-09-18T11:28:24;7.25;;;3.25;;
22628;SDS011;11481;53.694;9.910;2023-09-18T11:30:55;8.43;;;3.60;;
22628;SDS011;11481;53.694;9.910;2023-09-18T11:36:08;10.40;;;3.83;;
22628;SDS011;11481;53.694;9.910;2023-09-18T11:38:51;5.18;;;3.15;;
22628;SDS011;11481;53.694;9.910;2023-09-18T11:41:25;4.50;;;2.92;;
22628;SDS011;11481;53.694;9.910;2023-09-18T11:46:46;6.05;;;3.78;;
22628;SDS011;11481;53.694;9.910;2023-09-18T11:49:20;5.28;;;3.03;;
22628;SDS011;11481;53.694;9.910;2023-09-18T11:51:58;7.15;;;3.17;;
22628;SDS011;11481;53.694;9.910;2023-09-18T11:54:26;6.18;;;3.50;;
22628;SDS011;11481;53.694;9.910;2023-09-18T11:56:54;10.05;;;3.63;;
22628;SDS011;11481;53.694;9.910;2023-09-18T11:59:40;5.68;;;3.08;;
22628;SDS011;11481;53.694;9.910;2023-09-18T12:02:11;10.93;;;3.58;;
22628;SDS011;11481;53.694;9.910;2023-09-18T12:04:42;6.20;;;3.53;;
22628;SDS011;11481;53.694;9.910;2023-09-18T12:07:08;6.63;;;3.80;;
22628;SDS011;11481;53.694;9.910;2023-09-18T12:09:36;5.63;;;3.00;;
22628;SDS011;11481;53.694;9.910;2023-09-18T12:12:04;7.25;;;3.67;;
22628;SDS011;11481;53.694;9.910;2023-09-18T12:14:33;4.97;;;3.05;;
22628;SDS011;11481;53.694;9.910;2023-09-18T12:17:00;4.63;;;2.88;;
22628;SDS011;11481;53.694;9.910;2023-09-18T12:19:32;8.13;;;3.35;;
22628;SDS011;11481;53.694;9.910;2023-09-18T12:22:01;8.13;;;3.20;;
22628;SDS011;11481;53.694;9.910;2023-09-18T12:24:30;8.23;;;2.92;;
22628;SDS011;11481;53.694;9.910;2023-09-18T12:26:57;5.22;;;3.08;;
22628;SDS011;11481;53.694;9.910;2023-09-18T12:29:26;8.93;;;3.08;;
22628;SDS011;11481;53.694;9.910;2023-09-18T12:31:52;5.30;;;2.35;;
22628;SDS011;11481;53.694;9.910;2023-09-18T12:34:20;6.35;;;3.35;;
22628;SDS011;11481;53.694;9.910;2023-09-18T12:36:48;7.45;;;3.40;;
22628;SDS011;11481;53.694;9.910;2023-09-18T12:39:15;4.63;;;2.92;;
22628;SDS011;11481;53.694;9.910;2023-09-18T12:41:43;8.10;;;3.17;;
22628;SDS011;11481;53.694;9.910;2023-09-18T12:44:10;6.93;;;3.05;;
22628;SDS011;11481;53.694;9.910;2023-09-18T12:46:38;4.03;;;2.88;;
22628;SDS011;11481;53.694;9.910;2023-09-18T12:49:15;8.75;;;3.40;;
22628;SDS011;11481;53.694;9.910;2023-09-18T12:51:43;4.72;;;2.47;;
22628;SDS011;11481;53.694;9.910;2023-09-18T12:54:10;4.03;;;2.70;;
22628;SDS011;11481;53.694;9.910;2023-09-18T12:56:40;7.90;;;2.97;;
22628;SDS011;11481;53.694;9.910;2023-09-18T12:59:08;6.53;;;2.90;;
22628;SDS011;11481;53.694;9.910;2023-09-18T13:01:45;9.02;;;2.80;;
22628;SDS011;11481;53.694;9.910;2023-09-18T13:04:14;6.55;;;2.80;;
22628;SDS011;11481;53.694;9.910;2023-09-18T13:06:41;5.93;;;2.80;;
22628;SDS011;11481;53.694;9.910;2023-09-18T13:09:17;8.38;;;2.45;;
22628;SDS011;11481;53.694;9.910;2023-09-18T13:11:56;7.07;;;2.63;;
22628;SDS011;11481;53.694;9.910;2023-09-18T13:14:25;6.40;;;2.80;;
22628;SDS011;11481;53.694;9.910;2023-09-18T13:16:53;11.68;;;3.30;;
22628;SDS011;11481;53.694;9.910;2023-09-18T13:19:26;9.23;;;2.72;;
22628;SDS011;11481;53.694;9.910;2023-09-18T13:21:52;10.70;;;2.63;;
22628;SDS011;11481;53.694;9.910;2023-09-18T13:24:28;6.65;;;2.58;;
22628;SDS011;11481;53.694;9.910;2023-09-18T13:26:56;8.20;;;2.30;;
22628;SDS011;11481;53.694;9.910;2023-09-18T13:29:25;7.95;;;2.92;;
22628;SDS011;11481;53.694;9.910;2023-09-18T13:31:52;5.45;;;2.50;;
22628;SDS011;11481;53.694;9.910;2023-09-18T13:34:19;6.45;;;2.47;;
22628;SDS011;11481;53.694;9.910;2023-09-18T13:36:47;6.35;;;2.60;;
22628;SDS011;11481;53.694;9.910;2023-09-18T13:39:14;4.82;;;2.90;;
22628;SDS011;11481;53.694;9.910;2023-09-18T13:41:44;4.95;;;2.20;;
22628;SDS011;11481;53.694;9.910;2023-09-18T13:44:12;7.85;;;2.97;;
22628;SDS011;11481;53.694;9.910;2023-09-18T13:46:39;4.78;;;2.88;;
22628;SDS011;11481;53.694;9.910;2023-09-18T13:49:06;3.83;;;2.40;;
22628;SDS011;11481;53.694;9.910;2023-09-18T13:51:33;4.55;;;2.78;;
22628;SDS011;11481;53.694;9.910;2023-09-18T13:53:59;7.60;;;3.00;;
22628;SDS011;11481;53.694;9.910;2023-09-18T13:56:26;6.07;;;3.17;;
22628;SDS011;11481;53.694;9.910;2023-09-18T13:58:57;6.90;;;3.20;;
22628;SDS011;11481;53.694;9.910;2023-09-18T14:01:24;6.30;;;3.13;;
22628;SDS011;11481;53.694;9.910;2023-09-18T14:03:54;6.95;;;2.75;;
22628;SDS011;11481;53.694;9.910;2023-09-18T14:06:21;7.38;;;2.47;;
22628;SDS011;11481;53.694;9.910;2023-09-18T14:08:48;5.88;;;2.67;;
22628;SDS011;11481;53.694;9.910;2023-09-18T14:11:15;6.25;;;2.67;;
22628;SDS011;11481;53.694;9.910;2023-09-18T14:13:42;4.20;;;2.72;;
22628;SDS011;11481;53.694;9.910;2023-09-18T14:16:09;7.00;;;2.78;;
22628;SDS011;11481;53.694;9.910;2023-09-18T14:18:37;4.80;;;2.90;;
22628;SDS011;11481;53.694;9.910;2023-09-18T14:21:03;5.82;;;3.00;;
22628;SDS011;11481;53.694;9.910;2023-09-18T14:23:31;10.40;;;3.08;;
22628;SDS011;11481;53.694;9.910;2023-09-18T14:26:00;6.35;;;3.60;;
22628;SDS011;11481;53.694;9.910;2023-09-18T14:28:27;5.32;;;2.67;;
22628;SDS011;11481;53.694;9.910;2023-09-18T14:30:54;4.72;;;2.97;;
22628;SDS011;11481;53.694;9.910;2023-09-18T14:33:20;6.43;;;3.10;;
22628;SDS011;11481;53.694;9.910;2023-09-18T14:35:48;4.55;;;2.95;;
22628;SDS011;11481;53.694;9.910;2023-09-18T14:38:15;8.15;;;3.03;;
22628;SDS011;11481;53.694;9.910;2023-09-18T14:40:42;4.65;;;2.80;;
22628;SDS011;11481;53.694;9.910;2023-09-18T14:43:08;4.88;;;2.90;;
22628;SDS011;11481;53.694;9.910;2023-09-18T14:45:36;4.35;;;2.80;;
22628;SDS011;11481;53.694;9.910;2023-09-18T14:48:04;4.78;;;2.50;;
22628;SDS011;11481;53.694;9.910;2023-09-18T14:50:31;4.38;;;2.80;;
22628;SDS011;11481;53.694;9.910;2023-09-18T14:52:58;5.10;;;2.88;;
22628;SDS011;11481;53.694;9.910;2023-09-18T14:55:24;3.22;;;2.58;;
22628;SDS011;11481;53.694;9.910;2023-09-18T14:57:51;4.07;;;2.70;;
22628;SDS011;11481;53.694;9.910;2023-09-18T15:00:20;5.93;;;3.13;;
22628;SDS011;11481;53.694;9.910;2023-09-18T15:02:47;8.25;;;2.63;;
22628;SDS011;11481;53.694;9.910;2023-09-18T15:05:14;4.25;;;2.90;;
22628;SDS011;11481;53.694;9.910;2023-09-18T15:07:43;6.28;;;2.85;;
22628;SDS011;11481;53.694;9.910;2023-09-18T15:10:10;4.68;;;2.97;;
22628;SDS011;11481;53.694;9.910;2023-09-18T15:12:37;5.55;;;3.28;;
22628;SDS011;11481;53.694;9.910;2023-09-18T15:15:03;5.20;;;3.05;;
22628;SDS011;11481;53.694;9.910;2023-09-18T15:17:31;7.40;;;2.92;;